sensor_id;sensor_type;location;lat;lon;timestamp;pressure;altitude;pressure_sealevel;temperature;humidity
66945;BME280;53853;51.982;5.928;2022-11-24T00:01:02;100194.25;;;9.11;79.26
66945;BME280;53853;51.982;5.928;2022-11-24T00:03:33;100188.28;;;9.09;79.07
66945;BME280;53853;51.982;5.928;2022-11-24T00:06:07;100185.78;;;9.07;79.34
66945;BME280;53853;51.982;5.928;2022-11-24T00:08:38;100187.41;;;9.09;79.11
66945;BME280;53853;51.982;5.928;2022-11-24T00:11:10;100190.94;;;9.09;79.22
66945;BME280;53853;51.982;5.928;2022-11-24T00:13:41;100191.44;;;9.13;79.38
66945;BME280;53853;51.982;5.928;2022-11-24T00:16:13;100186.78;;;9.15;79.46
66945;BME280;53853;51.982;5.928;2022-11-24T00:18:45;100191.97;;;9.16;79.31
66945;BME280;53853;51.982;5.928;2022-11-24T00:21:18;100192.50;;;9.20;79.28
66945;BME280;53853;51.982;5.928;2022-11-24T00:23:49;100192.34;;;9.21;78.92
66945;BME280;53853;51.982;5.928;2022-11-24T00:26:21;100194.81;;;9.23;78.71
66945;BME280;53853;51.982;5.928;2022-11-24T00:28:53;100184.53;;;9.20;78.76
66945;BME280;53853;51.982;5.928;2022-11-24T00:31:25;100182.84;;;9.19;78.70
66945;BME280;53853;51.982;5.928;2022-11-24T00:33:57;100193.63;;;9.17;78.63
66945;BME280;53853;51.982;5.928;2022-11-24T00:36:31;100202.44;;;9.18;78.58
66945;BME280;53853;51.982;5.928;2022-11-24T00:39:04;100200.78;;;9.17;78.49
66945;BME280;53853;51.982;5.928;2022-11-24T00:41:34;100202.44;;;9.18;78.72
66945;BME280;53853;51.982;5.928;2022-11-24T00:44:05;100211.41;;;9.17;78.61
66945;BME280;53853;51.982;5.928;2022-11-24T00:46:35;100205.41;;;9.15;78.67
66945;BME280;53853;51.982;5.928;2022-11-24T00:49:05;100207.91;;;9.16;78.61
66945;BME280;53853;51.982;5.928;2022-11-24T00:51:38;100202.44;;;9.18;78.60
66945;BME280;53853;51.982;5.928;2022-11-24T00:54:08;100201.47;;;9.19;78.43
66945;BME280;53853;51.982;5.928;2022-11-24T00:56:38;100197.44;;;9.15;78.33
66945;BME280;53853;51.982;5.928;2022-11-24T00:59:08;100201.75;;;9.16;78.42
66945;BME280;53853;51.982;5.928;2022-11-24T01:01:38;100200.78;;;9.17;78.15
66945;BME280;53853;51.982;5.928;2022-11-24T01:04:08;100198.13;;;9.17;78.22
66945;BME280;53853;51.982;5.928;2022-11-24T01:06:41;100206.09;;;9.17;78.29
66945;BME280;53853;51.982;5.928;2022-11-24T01:09:11;100207.25;;;9.14;78.22
66945;BME280;53853;51.982;5.928;2022-11-24T01:11:41;100201.91;;;9.14;78.22
66945;BME280;53853;51.982;5.928;2022-11-24T01:14:24;100212.41;;;9.16;78.13
66945;BME280;53853;51.982;5.928;2022-11-24T01:16:57;100217.88;;;9.14;78.05
66945;BME280;53853;51.982;5.928;2022-11-24T01:19:27;100212.56;;;9.14;78.09
66945;BME280;53853;51.982;5.928;2022-11-24T01:22:00;100215.22;;;9.14;77.99
66945;BME280;53853;51.982;5.928;2022-11-24T01:24:30;100224.31;;;9.12;78.20
66945;BME280;53853;51.982;5.928;2022-11-24T01:27:00;100227.69;;;9.14;77.96
66945;BME280;53853;51.982;5.928;2022-11-24T01:29:30;100226.50;;;9.16;78.07
66945;BME280;53853;51.982;5.928;2022-11-24T01:32:00;100221.19;;;9.16;77.96
66945;BME280;53853;51.982;5.928;2022-11-24T01:34:30;100227.53;;;9.15;77.85
66945;BME280;53853;51.982;5.928;2022-11-24T01:37:02;100232.00;;;9.15;77.84
66945;BME280;53853;51.982;5.928;2022-11-24T01:39:32;100238.31;;;9.14;77.87
66945;BME280;53853;51.982;5.928;2022-11-24T01:42:03;100234.81;;;9.13;77.92
66945;BME280;53853;51.982;5.928;2022-11-24T01:44:33;100247.13;;;9.14;77.95
66945;BME280;53853;51.982;5.928;2022-11-24T01:47:12;100242.47;;;9.16;78.12
66945;BME280;53853;51.982;5.928;2022-11-24T01:49:52;100243.84;;;9.20;78.12
66945;BME280;53853;51.982;5.928;2022-11-24T01:52:27;100242.50;;;9.24;78.07
66945;BME280;53853;51.982;5.928;2022-11-24T01:55:02;100245.72;;;9.28;77.93
66945;BME280;53853;51.982;5.928;2022-11-24T01:57:37;100242.91;;;9.30;77.41
66945;BME280;53853;51.982;5.928;2022-11-24T02:00:14;100240.41;;;9.28;77.33
66945;BME280;53853;51.982;5.928;2022-11-24T02:02:44;100240.72;;;9.25;77.32
66945;BME280;53853;51.982;5.928;2022-11-24T02:05:17;100248.00;;;9.23;77.20
66945;BME280;53853;51.982;5.928;2022-11-24T02:07:54;100254.31;;;9.22;77.20
66945;BME280;53853;51.982;5.928;2022-11-24T02:10:25;100247.16;;;9.22;77.36
66945;BME280;53853;51.982;5.928;2022-11-24T02:12:57;100255.97;;;9.23;77.26
66945;BME280;53853;51.982;5.928;2022-11-24T02:15:28;100255.28;;;9.21;77.28
66945;BME280;53853;51.982;5.928;2022-11-24T02:17:58;100259.13;;;9.18;77.23
66945;BME280;53853;51.982;5.928;2022-11-24T02:20:28;100257.13;;;9.20;77.39
66945;BME280;53853;51.982;5.928;2022-11-24T02:23:08;100257.28;;;9.19;77.37
66945;BME280;53853;51.982;5.928;2022-11-24T02:25:47;100264.13;;;9.21;77.16
66945;BME280;53853;51.982;5.928;2022-11-24T02:28:22;100274.41;;;9.24;77.18
66945;BME280;53853;51.982;5.928;2022-11-24T02:30:56;100272.63;;;9.25;77.22
66945;BME280;53853;51.982;5.928;2022-11-24T02:33:27;100274.41;;;9.24;77.29
66945;BME280;53853;51.982;5.928;2022-11-24T02:35:57;100273.44;;;9.25;77.04
66945;BME280;53853;51.982;5.928;2022-11-24T02:38:31;100271.31;;;9.29;77.05
66945;BME280;53853;51.982;5.928;2022-11-24T02:41:04;100275.94;;;9.27;76.89
66945;BME280;53853;51.982;5.928;2022-11-24T02:43:40;100279.59;;;9.26;76.74
66945;BME280;53853;51.982;5.928;2022-11-24T02:46:10;100277.09;;;9.24;76.69
66945;BME280;53853;51.982;5.928;2022-11-24T02:48:40;100278.25;;;9.22;76.76
66945;BME280;53853;51.982;5.928;2022-11-24T02:51:10;100277.25;;;9.23;76.63
66945;BME280;53853;51.982;5.928;2022-11-24T02:53:40;100291.84;;;9.19;76.94
66945;BME280;53853;51.982;5.928;2022-11-24T02:56:10;100284.19;;;9.16;76.67
66945;BME280;53853;51.982;5.928;2022-11-24T02:58:43;100273.84;;;9.13;76.75
66945;BME280;53853;51.982;5.928;2022-11-24T03:01:13;100285.31;;;9.13;76.72
66945;BME280;53853;51.982;5.928;2022-11-24T03:03:43;100277.63;;;9.10;76.84
66945;BME280;53853;51.982;5.928;2022-11-24T03:06:13;100282.44;;;9.06;76.81
66945;BME280;53853;51.982;5.928;2022-11-24T03:08:43;100280.09;;;9.03;76.85
66945;BME280;53853;51.982;5.928;2022-11-24T03:11:13;100279.41;;;9.01;76.95
66945;BME280;53853;51.982;5.928;2022-11-24T03:13:45;100279.03;;;8.96;77.13
66945;BME280;53853;51.982;5.928;2022-11-24T03:16:15;100279.19;;;8.95;77.03
66945;BME280;53853;51.982;5.928;2022-11-24T03:18:45;100283.66;;;8.94;77.13
66945;BME280;53853;51.982;5.928;2022-11-24T03:21:16;100286.47;;;8.93;77.17
66945;BME280;53853;51.982;5.928;2022-11-24T03:23:46;100292.78;;;8.92;77.04
66945;BME280;53853;51.982;5.928;2022-11-24T03:26:17;100285.78;;;8.91;77.13
66945;BME280;53853;51.982;5.928;2022-11-24T03:28:52;100288.59;;;8.89;77.16
66945;BME280;53853;51.982;5.928;2022-11-24T03:31:24;100284.97;;;8.90;77.24
66945;BME280;53853;51.982;5.928;2022-11-24T03:33:54;100283.13;;;8.91;77.15
66945;BME280;53853;51.982;5.928;2022-11-24T03:36:23;100293.91;;;8.89;77.35
66945;BME280;53853;51.982;5.928;2022-11-24T03:38:53;100302.56;;;8.91;77.28
66945;BME280;53853;51.982;5.928;2022-11-24T03:41:23;100307.06;;;8.91;77.53
66945;BME280;53853;51.982;5.928;2022-11-24T03:43:56;100305.06;;;8.93;77.55
66945;BME280;53853;51.982;5.928;2022-11-24T03:46:26;100317.06;;;8.97;77.70
66945;BME280;53853;51.982;5.928;2022-11-24T03:48:56;100311.31;;;9.01;77.55
66945;BME280;53853;51.982;5.928;2022-11-24T03:51:26;100307.50;;;9.04;77.66
66945;BME280;53853;51.982;5.928;2022-11-24T03:53:56;100307.19;;;9.07;77.34
66945;BME280;53853;51.982;5.928;2022-11-24T03:56:25;100316.53;;;9.11;77.25
66945;BME280;53853;51.982;5.928;2022-11-24T03:58:58;100313.88;;;9.11;77.12
66945;BME280;53853;51.982;5.928;2022-11-24T04:01:28;100314.03;;;9.10;77.17
66945;BME280;53853;51.982;5.928;2022-11-24T04:03:58;100327.31;;;9.10;77.04
66945;BME280;53853;51.982;5.928;2022-11-24T04:06:28;100328.28;;;9.09;77.03
66945;BME280;53853;51.982;5.928;2022-11-24T04:08:59;100334.63;;;9.07;77.06
66945;BME280;53853;51.982;5.928;2022-11-24T04:11:29;100335.22;;;9.01;77.01
66945;BME280;53853;51.982;5.928;2022-11-24T04:14:14;100342.53;;;8.99;77.47
66945;BME280;53853;51.982;5.928;2022-11-24T04:16:44;100342.69;;;8.98;77.34
66945;BME280;53853;51.982;5.928;2022-11-24T04:19:14;100348.16;;;8.96;77.47
66945;BME280;53853;51.982;5.928;2022-11-24T04:21:43;100341.81;;;8.97;77.42
66945;BME280;53853;51.982;5.928;2022-11-24T04:24:13;100340.53;;;9.01;77.63
66945;BME280;53853;51.982;5.928;2022-11-24T04:26:43;100334.94;;;9.04;77.54
66945;BME280;53853;51.982;5.928;2022-11-24T04:29:15;100343.88;;;9.03;77.57
66945;BME280;53853;51.982;5.928;2022-11-24T04:31:45;100344.88;;;9.02;77.50
66945;BME280;53853;51.982;5.928;2022-11-24T04:34:15;100350.34;;;9.01;77.27
66945;BME280;53853;51.982;5.928;2022-11-24T04:36:45;100346.84;;;9.00;77.22
66945;BME280;53853;51.982;5.928;2022-11-24T04:39:14;100354.13;;;8.98;77.34
66945;BME280;53853;51.982;5.928;2022-11-24T04:41:46;100355.41;;;8.94;77.42
66945;BME280;53853;51.982;5.928;2022-11-24T04:44:19;100359.75;;;8.95;77.40
66945;BME280;53853;51.982;5.928;2022-11-24T04:46:48;100364.09;;;8.96;77.47
66945;BME280;53853;51.982;5.928;2022-11-24T04:49:18;100360.44;;;8.97;77.51
66945;BME280;53853;51.982;5.928;2022-11-24T04:51:49;100359.31;;;9.00;77.70
66945;BME280;53853;51.982;5.928;2022-11-24T04:54:19;100359.16;;;9.01;77.61
66945;BME280;53853;51.982;5.928;2022-11-24T04:56:50;100364.16;;;9.04;77.70
66945;BME280;53853;51.982;5.928;2022-11-24T04:59:23;100366.66;;;9.06;77.85
66945;BME280;53853;51.982;5.928;2022-11-24T05:01:53;100365.66;;;9.07;77.65
66945;BME280;53853;51.982;5.928;2022-11-24T05:04:23;100369.31;;;9.06;77.65
66945;BME280;53853;51.982;5.928;2022-11-24T05:06:52;100366.22;;;9.11;77.67
66945;BME280;53853;51.982;5.928;2022-11-24T05:09:22;100372.34;;;9.11;77.67
66945;BME280;53853;51.982;5.928;2022-11-24T05:11:52;100374.56;;;9.16;77.56
66945;BME280;53853;51.982;5.928;2022-11-24T05:14:26;100375.09;;;9.19;77.20
66945;BME280;53853;51.982;5.928;2022-11-24T05:16:56;100372.13;;;9.22;77.13
66945;BME280;53853;51.982;5.928;2022-11-24T05:19:26;100384.28;;;9.25;76.81
66945;BME280;53853;51.982;5.928;2022-11-24T05:21:56;100390.28;;;9.27;76.60
66945;BME280;53853;51.982;5.928;2022-11-24T05:24:26;100390.81;;;9.31;76.47
66945;BME280;53853;51.982;5.928;2022-11-24T05:26:56;100398.31;;;9.35;76.27
66945;BME280;53853;51.982;5.928;2022-11-24T05:29:28;100403.03;;;9.41;75.83
66945;BME280;53853;51.982;5.928;2022-11-24T05:31:58;100410.88;;;9.43;75.63
66945;BME280;53853;51.982;5.928;2022-11-24T05:34:28;100414.03;;;9.47;75.68
66945;BME280;53853;51.982;5.928;2022-11-24T05:36:59;100413.06;;;9.48;75.77
66945;BME280;53853;51.982;5.928;2022-11-24T05:39:31;100427.34;;;9.47;75.75
66945;BME280;53853;51.982;5.928;2022-11-24T05:42:02;100424.00;;;9.45;75.70
66945;BME280;53853;51.982;5.928;2022-11-24T05:44:55;100431.84;;;9.46;75.81
66945;BME280;53853;51.982;5.928;2022-11-24T05:47:26;100430.00;;;9.47;75.62
66945;BME280;53853;51.982;5.928;2022-11-24T05:49:55;100432.97;;;9.43;75.86
66945;BME280;53853;51.982;5.928;2022-11-24T05:52:25;100438.44;;;9.42;75.92
66945;BME280;53853;51.982;5.928;2022-11-24T05:54:55;100435.94;;;9.40;76.01
66945;BME280;53853;51.982;5.928;2022-11-24T05:57:25;100446.75;;;9.39;75.89
66945;BME280;53853;51.982;5.928;2022-11-24T05:59:57;100443.53;;;9.35;76.13
66945;BME280;53853;51.982;5.928;2022-11-24T06:02:27;100455.03;;;9.36;76.07
66945;BME280;53853;51.982;5.928;2022-11-24T06:04:57;100464.44;;;9.30;75.71
66945;BME280;53853;51.982;5.928;2022-11-24T06:07:27;100472.72;;;9.27;75.74
66945;BME280;53853;51.982;5.928;2022-11-24T06:09:57;100480.00;;;9.25;75.66
66945;BME280;53853;51.982;5.928;2022-11-24T06:12:27;100478.31;;;9.24;75.73
66945;BME280;53853;51.982;5.928;2022-11-24T06:14:59;100487.13;;;9.24;75.57
66945;BME280;53853;51.982;5.928;2022-11-24T06:17:29;100487.28;;;9.23;75.69
66945;BME280;53853;51.982;5.928;2022-11-24T06:19:59;100495.25;;;9.23;75.96
66945;BME280;53853;51.982;5.928;2022-11-24T06:22:29;100500.75;;;9.21;76.29
66945;BME280;53853;51.982;5.928;2022-11-24T06:24:59;100504.09;;;9.23;76.35
66945;BME280;53853;51.982;5.928;2022-11-24T06:27:29;100509.25;;;9.25;76.19
66945;BME280;53853;51.982;5.928;2022-11-24T06:30:01;100512.44;;;9.29;76.15
66945;BME280;53853;51.982;5.928;2022-11-24T06:32:31;100516.78;;;9.30;76.22
66945;BME280;53853;51.982;5.928;2022-11-24T06:35:01;100523.09;;;9.29;76.50
66945;BME280;53853;51.982;5.928;2022-11-24T06:37:34;100531.59;;;9.32;76.52
66945;BME280;53853;51.982;5.928;2022-11-24T06:40:05;100533.13;;;9.35;76.42
66945;BME280;53853;51.982;5.928;2022-11-24T06:42:36;100537.19;;;9.39;76.68
66945;BME280;53853;51.982;5.928;2022-11-24T06:45:09;100535.63;;;9.36;76.89
66945;BME280;53853;51.982;5.928;2022-11-24T06:47:39;100557.59;;;9.38;77.60
66945;BME280;53853;51.982;5.928;2022-11-24T06:50:10;100549.38;;;9.32;77.82
66945;BME280;53853;51.982;5.928;2022-11-24T06:52:40;100558.47;;;9.29;78.17
66945;BME280;53853;51.982;5.928;2022-11-24T06:55:10;100564.81;;;9.28;78.57
66945;BME280;53853;51.982;5.928;2022-11-24T06:57:40;100569.56;;;9.24;78.58
66945;BME280;53853;51.982;5.928;2022-11-24T07:00:13;100576.84;;;9.22;78.74
66945;BME280;53853;51.982;5.928;2022-11-24T07:02:43;100577.69;;;9.23;78.70
66945;BME280;53853;51.982;5.928;2022-11-24T07:05:13;100592.94;;;9.21;78.74
66945;BME280;53853;51.982;5.928;2022-11-24T07:07:43;100598.94;;;9.23;79.20
66945;BME280;53853;51.982;5.928;2022-11-24T07:10:13;100612.66;;;9.28;78.73
66945;BME280;53853;51.982;5.928;2022-11-24T07:12:43;100603.16;;;9.25;79.37
66945;BME280;53853;51.982;5.928;2022-11-24T07:15:16;100618.41;;;9.23;79.11
66945;BME280;53853;51.982;5.928;2022-11-24T07:17:46;100615.75;;;9.23;79.60
66945;BME280;53853;51.982;5.928;2022-11-24T07:20:16;100617.56;;;9.23;79.24
66945;BME280;53853;51.982;5.928;2022-11-24T07:22:46;100621.38;;;9.20;79.37
66945;BME280;53853;51.982;5.928;2022-11-24T07:25:16;100631.19;;;9.20;79.75
66945;BME280;53853;51.982;5.928;2022-11-24T07:27:46;100626.53;;;9.22;79.86
66945;BME280;53853;51.982;5.928;2022-11-24T07:30:18;100635.34;;;9.22;79.85
66945;BME280;53853;51.982;5.928;2022-11-24T07:32:48;100637.88;;;9.24;79.94
66945;BME280;53853;51.982;5.928;2022-11-24T07:35:18;100640.38;;;9.25;79.88
66945;BME280;53853;51.982;5.928;2022-11-24T07:37:48;100647.53;;;9.25;79.91
66945;BME280;53853;51.982;5.928;2022-11-24T07:40:18;100659.13;;;9.24;80.04
66945;BME280;53853;51.982;5.928;2022-11-24T07:42:48;100671.59;;;9.23;80.12
66945;BME280;53853;51.982;5.928;2022-11-24T07:45:21;100659.97;;;9.24;80.00
66945;BME280;53853;51.982;5.928;2022-11-24T07:47:50;100668.81;;;9.25;79.98
66945;BME280;53853;51.982;5.928;2022-11-24T07:50:20;100673.13;;;9.26;79.94
66945;BME280;53853;51.982;5.928;2022-11-24T07:52:50;100679.59;;;9.23;80.07
66945;BME280;53853;51.982;5.928;2022-11-24T07:55:20;100683.91;;;9.24;80.12
66945;BME280;53853;51.982;5.928;2022-11-24T07:57:50;100681.25;;;9.24;80.23
66945;BME280;53853;51.982;5.928;2022-11-24T08:00:23;100683.75;;;9.26;80.12
66945;BME280;53853;51.982;5.928;2022-11-24T08:02:53;100689.78;;;9.28;79.66
66945;BME280;53853;51.982;5.928;2022-11-24T08:05:22;100700.28;;;9.30;79.91
66945;BME280;53853;51.982;5.928;2022-11-24T08:07:52;100697.47;;;9.31;79.53
66945;BME280;53853;51.982;5.928;2022-11-24T08:10:22;100701.09;;;9.30;79.52
66945;BME280;53853;51.982;5.928;2022-11-24T08:12:52;100705.59;;;9.30;79.59
66945;BME280;53853;51.982;5.928;2022-11-24T08:15:24;100710.06;;;9.29;79.50
66945;BME280;53853;51.982;5.928;2022-11-24T08:17:54;100715.66;;;9.26;79.35
66945;BME280;53853;51.982;5.928;2022-11-24T08:20:24;100722.81;;;9.25;79.58
66945;BME280;53853;51.982;5.928;2022-11-24T08:22:56;100724.63;;;9.25;79.47
66945;BME280;53853;51.982;5.928;2022-11-24T08:25:27;100721.13;;;9.24;79.41
66945;BME280;53853;51.982;5.928;2022-11-24T08:27:58;100725.63;;;9.24;79.41
66945;BME280;53853;51.982;5.928;2022-11-24T08:30:31;100725.63;;;9.24;79.63
66945;BME280;53853;51.982;5.928;2022-11-24T08:33:00;100734.72;;;9.21;79.61
66945;BME280;53853;51.982;5.928;2022-11-24T08:35:30;100739.59;;;9.26;79.49
66945;BME280;53853;51.982;5.928;2022-11-24T08:38:00;100745.63;;;9.28;79.77
66945;BME280;53853;51.982;5.928;2022-11-24T08:40:30;100741.69;;;9.32;80.06
66945;BME280;53853;51.982;5.928;2022-11-24T08:43:00;100751.34;;;9.33;79.90
66945;BME280;53853;51.982;5.928;2022-11-24T08:45:32;100748.41;;;9.36;79.93
66945;BME280;53853;51.982;5.928;2022-11-24T08:48:03;100753.44;;;9.39;79.88
66945;BME280;53853;51.982;5.928;2022-11-24T08:50:32;100761.94;;;9.43;80.03
66945;BME280;53853;51.982;5.928;2022-11-24T08:53:03;100765.16;;;9.47;80.08
66945;BME280;53853;51.982;5.928;2022-11-24T08:55:33;100772.84;;;9.50;80.04
66945;BME280;53853;51.982;5.928;2022-11-24T08:58:03;100771.19;;;9.49;79.78
66945;BME280;53853;51.982;5.928;2022-11-24T09:00:35;100759.53;;;9.50;80.01
66945;BME280;53853;51.982;5.928;2022-11-24T09:03:05;100766.84;;;9.48;80.13
66945;BME280;53853;51.982;5.928;2022-11-24T09:05:35;100772.03;;;9.49;80.15
66945;BME280;53853;51.982;5.928;2022-11-24T09:08:05;100768.94;;;9.54;80.04
66945;BME280;53853;51.982;5.928;2022-11-24T09:10:35;100780.09;;;9.57;79.88
66945;BME280;53853;51.982;5.928;2022-11-24T09:13:05;100778.59;;;9.55;79.58
66945;BME280;53853;51.982;5.928;2022-11-24T09:15:37;100785.88;;;9.53;79.51
66945;BME280;53853;51.982;5.928;2022-11-24T09:18:07;100790.78;;;9.48;79.37
66945;BME280;53853;51.982;5.928;2022-11-24T09:20:37;100799.06;;;9.45;79.50
66945;BME280;53853;51.982;5.928;2022-11-24T09:23:07;100787.59;;;9.44;79.58
66945;BME280;53853;51.982;5.928;2022-11-24T09:25:37;100792.31;;;9.40;79.51
66945;BME280;53853;51.982;5.928;2022-11-24T09:28:07;100800.16;;;9.42;79.64
66945;BME280;53853;51.982;5.928;2022-11-24T09:30:40;100804.78;;;9.40;79.67
66945;BME280;53853;51.982;5.928;2022-11-24T09:33:09;100806.19;;;9.44;79.89
66945;BME280;53853;51.982;5.928;2022-11-24T09:35:39;100810.66;;;9.43;80.03
66945;BME280;53853;51.982;5.928;2022-11-24T09:38:09;100819.50;;;9.44;80.37
66945;BME280;53853;51.982;5.928;2022-11-24T09:40:39;100823.41;;;9.50;80.67
66945;BME280;53853;51.982;5.928;2022-11-24T09:43:13;100821.44;;;9.52;80.68
66945;BME280;53853;51.982;5.928;2022-11-24T09:45:53;100833.47;;;9.56;80.87
66945;BME280;53853;51.982;5.928;2022-11-24T09:48:33;100844.22;;;9.64;80.95
66945;BME280;53853;51.982;5.928;2022-11-24T09:51:05;100837.06;;;9.74;80.84
66945;BME280;53853;51.982;5.928;2022-11-24T09:53:41;100835.06;;;9.86;80.56
66945;BME280;53853;51.982;5.928;2022-11-24T09:56:17;100842.63;;;9.91;79.36
66945;BME280;53853;51.982;5.928;2022-11-24T09:58:50;100849.91;;;9.89;79.26
66945;BME280;53853;51.982;5.928;2022-11-24T10:01:28;100841.63;;;9.92;79.05
66945;BME280;53853;51.982;5.928;2022-11-24T10:03:59;100844.97;;;9.94;78.77
66945;BME280;53853;51.982;5.928;2022-11-24T10:06:34;100854.66;;;9.95;78.16
66945;BME280;53853;51.982;5.928;2022-11-24T10:09:18;100858.44;;;9.92;78.19
66945;BME280;53853;51.982;5.928;2022-11-24T10:11:57;100857.91;;;9.89;78.33
66945;BME280;53853;51.982;5.928;2022-11-24T10:14:56;100870.66;;;9.85;78.43
66945;BME280;53853;51.982;5.928;2022-11-24T10:17:41;100876.00;;;9.85;78.50
66945;BME280;53853;51.982;5.928;2022-11-24T10:20:21;100878.94;;;9.82;78.61
66945;BME280;53853;51.982;5.928;2022-11-24T10:23:05;100879.03;;;9.90;78.56
66945;BME280;53853;51.982;5.928;2022-11-24T10:25:47;100884.63;;;9.97;78.46
66945;BME280;53853;51.982;5.928;2022-11-24T10:28:19;100893.72;;;10.04;78.27
66945;BME280;53853;51.982;5.928;2022-11-24T10:30:49;100888.81;;;10.09;78.24
66945;BME280;53853;51.982;5.928;2022-11-24T10:33:22;100887.53;;;10.13;78.09
66945;BME280;53853;51.982;5.928;2022-11-24T10:35:55;100883.00;;;10.24;78.11
66945;BME280;53853;51.982;5.928;2022-11-24T10:38:33;100888.31;;;10.33;78.14
66945;BME280;53853;51.982;5.928;2022-11-24T10:41:07;100897.69;;;10.38;77.54
66945;BME280;53853;51.982;5.928;2022-11-24T10:43:41;100894.88;;;10.39;77.05
66945;BME280;53853;51.982;5.928;2022-11-24T10:46:17;100908.88;;;10.41;76.21
66945;BME280;53853;51.982;5.928;2022-11-24T10:48:55;100902.44;;;10.44;76.09
66945;BME280;53853;51.982;5.928;2022-11-24T10:51:52;100910.28;;;10.45;76.30
66945;BME280;53853;51.982;5.928;2022-11-24T10:54:27;100903.13;;;10.46;76.15
66945;BME280;53853;51.982;5.928;2022-11-24T10:56:57;100915.03;;;10.51;75.76
66945;BME280;53853;51.982;5.928;2022-11-24T10:59:33;100903.06;;;10.56;76.04
66945;BME280;53853;51.982;5.928;2022-11-24T11:02:28;100921.81;;;10.64;76.07
66945;BME280;53853;51.982;5.928;2022-11-24T11:05:33;100918.84;;;10.67;74.92
66945;BME280;53853;51.982;5.928;2022-11-24T11:08:24;100913.38;;;10.68;75.23
66945;BME280;53853;51.982;5.928;2022-11-24T11:11:13;100921.75;;;10.74;74.42
66945;BME280;53853;51.982;5.928;2022-11-24T11:13:48;100925.00;;;10.77;74.55
66945;BME280;53853;51.982;5.928;2022-11-24T11:16:26;100927.34;;;10.80;74.18
66945;BME280;53853;51.982;5.928;2022-11-24T11:18:59;100930.69;;;10.82;74.53
66945;BME280;53853;51.982;5.928;2022-11-24T11:21:37;100923.09;;;10.87;74.85
66945;BME280;53853;51.982;5.928;2022-11-24T11:24:16;100932.78;;;10.88;73.89
66945;BME280;53853;51.982;5.928;2022-11-24T11:26:46;100932.09;;;10.86;74.10
66945;BME280;53853;51.982;5.928;2022-11-24T11:29:17;100937.88;;;10.82;73.56
66945;BME280;53853;51.982;5.928;2022-11-24T11:31:59;100939.53;;;10.83;73.75
66945;BME280;53853;51.982;5.928;2022-11-24T11:34:34;100935.06;;;10.83;74.07
66945;BME280;53853;51.982;5.928;2022-11-24T11:37:09;100946.78;;;10.91;74.01
66945;BME280;53853;51.982;5.928;2022-11-24T11:39:41;100932.84;;;10.97;73.05
66945;BME280;53853;51.982;5.928;2022-11-24T11:42:18;100928.91;;;11.01;73.42
66945;BME280;53853;51.982;5.928;2022-11-24T11:44:52;100933.53;;;10.99;73.19
66945;BME280;53853;51.982;5.928;2022-11-24T11:47:27;100929.91;;;11.00;73.14
66945;BME280;53853;51.982;5.928;2022-11-24T11:49:58;100940.94;;;11.05;73.51
66945;BME280;53853;51.982;5.928;2022-11-24T11:52:50;100934.63;;;11.06;73.22
66945;BME280;53853;51.982;5.928;2022-11-24T11:55:42;100932.19;;;11.13;72.55
66945;BME280;53853;51.982;5.928;2022-11-24T11:58:51;100933.72;;;11.15;72.76
66945;BME280;53853;51.982;5.928;2022-11-24T12:01:37;100935.38;;;11.16;72.31
66945;BME280;53853;51.982;5.928;2022-11-24T12:04:19;100933.88;;;11.14;72.46
66945;BME280;53853;51.982;5.928;2022-11-24T12:07:24;100926.03;;;11.12;72.70
66945;BME280;53853;51.982;5.928;2022-11-24T12:10:06;100927.69;;;11.13;72.79
66945;BME280;53853;51.982;5.928;2022-11-24T12:13:10;100928.25;;;11.17;73.15
66945;BME280;53853;51.982;5.928;2022-11-24T12:15:46;100927.78;;;11.21;72.33
66945;BME280;53853;51.982;5.928;2022-11-24T12:18:26;100933.66;;;11.25;72.29
66945;BME280;53853;51.982;5.928;2022-11-24T12:21:07;100933.66;;;11.25;71.93
66945;BME280;53853;51.982;5.928;2022-11-24T12:23:49;100933.81;;;11.23;72.38
66945;BME280;53853;51.982;5.928;2022-11-24T12:26:28;100939.66;;;11.27;72.11
66945;BME280;53853;51.982;5.928;2022-11-24T12:29:24;100933.88;;;11.32;71.12
66945;BME280;53853;51.982;5.928;2022-11-24T12:32:04;100927.72;;;11.31;71.78
66945;BME280;53853;51.982;5.928;2022-11-24T12:34:46;100937.22;;;11.34;72.06
66945;BME280;53853;51.982;5.928;2022-11-24T12:37:36;100937.63;;;11.39;72.13
66945;BME280;53853;51.982;5.928;2022-11-24T12:40:13;100941.81;;;11.41;71.88
66945;BME280;53853;51.982;5.928;2022-11-24T12:42:55;100937.03;;;11.45;71.60
66945;BME280;53853;51.982;5.928;2022-11-24T12:45:33;100938.38;;;11.49;71.74
66945;BME280;53853;51.982;5.928;2022-11-24T12:48:17;100936.06;;;11.54;71.34
66945;BME280;53853;51.982;5.928;2022-11-24T12:50:52;100935.63;;;11.59;71.44
66945;BME280;53853;51.982;5.928;2022-11-24T12:53:25;100935.47;;;11.60;70.93
66945;BME280;53853;51.982;5.928;2022-11-24T12:55:59;100937.81;;;11.64;70.48
66945;BME280;53853;51.982;5.928;2022-11-24T12:58:41;100938.69;;;11.64;70.60
66945;BME280;53853;51.982;5.928;2022-11-24T13:01:24;100944.53;;;11.68;70.38
66945;BME280;53853;51.982;5.928;2022-11-24T13:04:06;100947.22;;;11.68;70.44
66945;BME280;53853;51.982;5.928;2022-11-24T13:06:47;100946.19;;;11.69;70.52
66945;BME280;53853;51.982;5.928;2022-11-24T13:09:20;100945.88;;;11.72;70.32
66945;BME280;53853;51.982;5.928;2022-11-24T13:11:51;100950.56;;;11.70;69.92
66945;BME280;53853;51.982;5.928;2022-11-24T13:14:29;100952.41;;;11.69;70.07
66945;BME280;53853;51.982;5.928;2022-11-24T13:17:02;100958.72;;;11.68;69.91
66945;BME280;53853;51.982;5.928;2022-11-24T13:19:33;100959.41;;;11.70;70.21
66945;BME280;53853;51.982;5.928;2022-11-24T13:22:22;100967.25;;;11.72;69.99
66945;BME280;53853;51.982;5.928;2022-11-24T13:25:12;100964.56;;;11.72;70.29
66945;BME280;53853;51.982;5.928;2022-11-24T13:27:45;100967.97;;;11.74;69.85
66945;BME280;53853;51.982;5.928;2022-11-24T13:33:35;100965.13;;;11.75;69.40